sensor_id;sensor_type;location;lat;lon;timestamp;pressure;altitude;pressure_sealevel;temperature;humidity
6030;BME280;3043;42.682;23.376;2023-04-27T00:01:12;94622.03;;;8.58;100.00
6030;BME280;3043;42.682;23.376;2023-04-27T00:03:38;94612.59;;;8.57;100.00
6030;BME280;3043;42.682;23.376;2023-04-27T00:06:04;94618.66;;;8.56;100.00
6030;BME280;3043;42.682;23.376;2023-04-27T00:08:29;94614.44;;;8.52;100.00
6030;BME280;3043;42.682;23.376;2023-04-27T00:10:55;94620.56;;;8.48;100.00
6030;BME280;3043;42.682;23.376;2023-04-27T00:13:21;94622.25;;;8.49;100.00
6030;BME280;3043;42.682;23.376;2023-04-27T00:15:46;94617.16;;;8.46;100.00
6030;BME280;3043;42.682;23.376;2023-04-27T00:18:12;94622.38;;;8.43;100.00
6030;BME280;3043;42.682;23.376;2023-04-27T00:20:37;94634.75;;;8.29;100.00
6030;BME280;3043;42.682;23.376;2023-04-27T00:23:04;94631.34;;;8.27;100.00
6030;BME280;3043;42.682;23.376;2023-04-27T00:25:30;94629.72;;;8.20;100.00
6030;BME280;3043;42.682;23.376;2023-04-27T00:27:55;94636.66;;;8.18;100.00
6030;BME280;3043;42.682;23.376;2023-04-27T00:30:20;94628.97;;;8.17;100.00
6030;BME280;3043;42.682;23.376;2023-04-27T00:32:46;94637.50;;;8.19;100.00
6030;BME280;3043;42.682;23.376;2023-04-27T00:35:11;94631.72;;;8.09;100.00
6030;BME280;3043;42.682;23.376;2023-04-27T00:37:37;94629.03;;;8.14;100.00
6030;BME280;3043;42.682;23.376;2023-04-27T00:40:04;94634.13;;;8.17;100.00
6030;BME280;3043;42.682;23.376;2023-04-27T00:42:31;94632.63;;;8.05;100.00
6030;BME280;3043;42.682;23.376;2023-04-27T00:44:57;94637.97;;;7.96;100.00
6030;BME280;3043;42.682;23.376;2023-04-27T00:47:23;94639.19;;;7.80;100.00
6030;BME280;3043;42.682;23.376;2023-04-27T00:49:48;94636.16;;;8.01;100.00
6030;BME280;3043;42.682;23.376;2023-04-27T00:52:14;94643.16;;;7.95;100.00
6030;BME280;3043;42.682;23.376;2023-04-27T00:54:40;94637.91;;;7.99;100.00
6030;BME280;3043;42.682;23.376;2023-04-27T00:57:05;94640.66;;;7.92;100.00
6030;BME280;3043;42.682;23.376;2023-04-27T00:59:31;94648.78;;;7.72;100.00
6030;BME280;3043;42.682;23.376;2023-04-27T01:01:56;94649.72;;;7.68;100.00
6030;BME280;3043;42.682;23.376;2023-04-27T01:04:22;94643.84;;;7.60;100.00
6030;BME280;3043;42.682;23.376;2023-04-27T01:06:47;94645.75;;;7.51;100.00
6030;BME280;3043;42.682;23.376;2023-04-27T01:09:13;94643.19;;;7.49;100.00
6030;BME280;3043;42.682;23.376;2023-04-27T01:11:40;94646.88;;;7.36;100.00
6030;BME280;3043;42.682;23.376;2023-04-27T01:14:06;94648.22;;;7.55;100.00
6030;BME280;3043;42.682;23.376;2023-04-27T01:16:32;94651.91;;;7.42;100.00
6030;BME280;3043;42.682;23.376;2023-04-27T01:18:58;94650.50;;;7.26;100.00
6030;BME280;3043;42.682;23.376;2023-04-27T01:21:24;94640.72;;;7.43;100.00
6030;BME280;3043;42.682;23.376;2023-04-27T01:23:50;94650.09;;;7.49;100.00
6030;BME280;3043;42.682;23.376;2023-04-27T01:26:16;94646.78;;;7.41;100.00
6030;BME280;3043;42.682;23.376;2023-04-27T01:28:42;94661.50;;;7.34;100.00
6030;BME280;3043;42.682;23.376;2023-04-27T01:31:09;94658.19;;;7.29;100.00
6030;BME280;3043;42.682;23.376;2023-04-27T01:33:35;94661.56;;;7.29;100.00
6030;BME280;3043;42.682;23.376;2023-04-27T01:36:01;94660.84;;;7.23;100.00
6030;BME280;3043;42.682;23.376;2023-04-27T01:38:26;94668.63;;;7.20;100.00
6030;BME280;3043;42.682;23.376;2023-04-27T01:40:52;94667.75;;;7.21;100.00
6030;BME280;3043;42.682;23.376;2023-04-27T01:43:20;94669.69;;;7.07;100.00
6030;BME280;3043;42.682;23.376;2023-04-27T01:45:45;94673.78;;;7.17;100.00
6030;BME280;3043;42.682;23.376;2023-04-27T01:48:12;94670.56;;;7.07;100.00
6030;BME280;3043;42.682;23.376;2023-04-27T01:50:38;94666.28;;;7.05;100.00
6030;BME280;3043;42.682;23.376;2023-04-27T01:53:03;94666.22;;;7.08;100.00
6030;BME280;3043;42.682;23.376;2023-04-27T01:55:29;94668.25;;;6.91;100.00
6030;BME280;3043;42.682;23.376;2023-04-27T01:57:55;94671.72;;;6.87;100.00
6030;BME280;3043;42.682;23.376;2023-04-27T02:00:20;94675.19;;;6.86;100.00
6030;BME280;3043;42.682;23.376;2023-04-27T02:02:46;94671.91;;;6.75;100.00
6030;BME280;3043;42.682;23.376;2023-04-27T02:05:11;94671.88;;;6.78;100.00
6030;BME280;3043;42.682;23.376;2023-04-27T02:07:37;94672.50;;;6.92;100.00
6030;BME280;3043;42.682;23.376;2023-04-27T02:10:02;94678.88;;;6.70;100.00
6030;BME280;3043;42.682;23.376;2023-04-27T02:12:28;94676.25;;;6.73;100.00
6030;BME280;3043;42.682;23.376;2023-04-27T02:14:53;94677.19;;;6.66;100.00
6030;BME280;3043;42.682;23.376;2023-04-27T02:17:18;94675.41;;;6.71;100.00
6030;BME280;3043;42.682;23.376;2023-04-27T02:19:44;94677.25;;;6.63;100.00
6030;BME280;3043;42.682;23.376;2023-04-27T02:22:09;94678.91;;;6.68;100.00
6030;BME280;3043;42.682;23.376;2023-04-27T02:24:35;94683.97;;;6.73;100.00
6030;BME280;3043;42.682;23.376;2023-04-27T02:27:01;94682.44;;;6.60;100.00
6030;BME280;3043;42.682;23.376;2023-04-27T02:29:30;94678.09;;;6.65;100.00
6030;BME280;3043;42.682;23.376;2023-04-27T02:31:56;94678.84;;;6.71;100.00
6030;BME280;3043;42.682;23.376;2023-04-27T02:34:21;94678.16;;;6.60;100.00
6030;BME280;3043;42.682;23.376;2023-04-27T02:36:47;94672.19;;;6.57;100.00
6030;BME280;3043;42.682;23.376;2023-04-27T02:39:12;94681.53;;;6.62;100.00
6030;BME280;3043;42.682;23.376;2023-04-27T02:41:37;94679.13;;;6.52;100.00
6030;BME280;3043;42.682;23.376;2023-04-27T02:44:03;94685.19;;;6.46;100.00
6030;BME280;3043;42.682;23.376;2023-04-27T02:46:28;94681.91;;;6.37;100.00
6030;BME280;3043;42.682;23.376;2023-04-27T02:48:54;94687.00;;;6.40;100.00
6030;BME280;3043;42.682;23.376;2023-04-27T02:51:20;94692.84;;;6.51;100.00
6030;BME280;3043;42.682;23.376;2023-04-27T02:53:46;94685.84;;;6.62;100.00
6030;BME280;3043;42.682;23.376;2023-04-27T02:56:11;94691.16;;;6.50;100.00
6030;BME280;3043;42.682;23.376;2023-04-27T02:58:36;94692.50;;;6.75;100.00
6030;BME280;3043;42.682;23.376;2023-04-27T03:01:02;94691.22;;;6.47;100.00
6030;BME280;3043;42.682;23.376;2023-04-27T03:03:27;94683.38;;;6.54;100.00
6030;BME280;3043;42.682;23.376;2023-04-27T03:05:53;94691.03;;;6.59;100.00
6030;BME280;3043;42.682;23.376;2023-04-27T03:08:18;94695.22;;;6.64;100.00
6030;BME280;3043;42.682;23.376;2023-04-27T03:10:44;94699.63;;;6.55;100.00
6030;BME280;3043;42.682;23.376;2023-04-27T03:13:09;94700.16;;;6.78;100.00
6030;BME280;3043;42.682;23.376;2023-04-27T03:15:35;94701.31;;;6.59;100.00
6030;BME280;3043;42.682;23.376;2023-04-27T03:18:00;94710.69;;;6.63;100.00
6030;BME280;3043;42.682;23.376;2023-04-27T03:20:26;94707.97;;;6.72;100.00
6030;BME280;3043;42.682;23.376;2023-04-27T03:22:51;94705.53;;;6.63;100.00
6030;BME280;3043;42.682;23.376;2023-04-27T03:25:17;94712.56;;;6.50;100.00
6030;BME280;3043;42.682;23.376;2023-04-27T03:27:42;94712.69;;;6.41;100.00
6030;BME280;3043;42.682;23.376;2023-04-27T03:30:08;94713.47;;;6.48;100.00
6030;BME280;3043;42.682;23.376;2023-04-27T03:32:34;94711.78;;;6.47;100.00
6030;BME280;3043;42.682;23.376;2023-04-27T03:35:00;94716.88;;;6.50;100.00
6030;BME280;3043;42.682;23.376;2023-04-27T03:37:25;94717.03;;;6.38;100.00
6030;BME280;3043;42.682;23.376;2023-04-27T03:39:51;94725.63;;;6.34;100.00
6030;BME280;3043;42.682;23.376;2023-04-27T03:42:17;94731.75;;;6.25;100.00
6030;BME280;3043;42.682;23.376;2023-04-27T03:44:42;94724.84;;;6.30;100.00
6030;BME280;3043;42.682;23.376;2023-04-27T03:47:07;94730.78;;;6.34;100.00
6030;BME280;3043;42.682;23.376;2023-04-27T03:49:34;94733.28;;;6.38;100.00
6030;BME280;3043;42.682;23.376;2023-04-27T03:52:00;94724.72;;;6.41;100.00
6030;BME280;3043;42.682;23.376;2023-04-27T03:54:26;94740.81;;;6.52;100.00
6030;BME280;3043;42.682;23.376;2023-04-27T03:56:52;94727.78;;;6.65;100.00
6030;BME280;3043;42.682;23.376;2023-04-27T03:59:17;94740.00;;;6.50;100.00
6030;BME280;3043;42.682;23.376;2023-04-27T04:01:42;94739.00;;;6.60;100.00
6030;BME280;3043;42.682;23.376;2023-04-27T04:04:08;94756.22;;;6.53;100.00
6030;BME280;3043;42.682;23.376;2023-04-27T04:06:33;94752.88;;;6.50;100.00
6030;BME280;3043;42.682;23.376;2023-04-27T04:08:59;94761.47;;;6.46;100.00
6030;BME280;3043;42.682;23.376;2023-04-27T04:11:25;94764.84;;;6.51;100.00
6030;BME280;3043;42.682;23.376;2023-04-27T04:13:51;94756.28;;;6.49;100.00
6030;BME280;3043;42.682;23.376;2023-04-27T04:16:17;94765.47;;;6.68;100.00
6030;BME280;3043;42.682;23.376;2023-04-27T04:18:42;94773.19;;;6.68;100.00
6030;BME280;3043;42.682;23.376;2023-04-27T04:21:08;94778.22;;;6.75;100.00
6030;BME280;3043;42.682;23.376;2023-04-27T04:23:35;94780.06;;;6.66;100.00
6030;BME280;3043;42.682;23.376;2023-04-27T04:26:01;94781.50;;;6.88;100.00
6030;BME280;3043;42.682;23.376;2023-04-27T04:28:27;94783.09;;;6.95;100.00
6030;BME280;3043;42.682;23.376;2023-04-27T04:30:52;94773.66;;;6.95;100.00
6030;BME280;3043;42.682;23.376;2023-04-27T04:33:18;94784.69;;;7.02;100.00
6030;BME280;3043;42.682;23.376;2023-04-27T04:35:43;94786.38;;;7.06;100.00
6030;BME280;3043;42.682;23.376;2023-04-27T04:38:09;94792.53;;;7.49;100.00
6030;BME280;3043;42.682;23.376;2023-04-27T04:40:37;94786.84;;;7.82;100.00
6030;BME280;3043;42.682;23.376;2023-04-27T04:43:03;94789.84;;;8.05;100.00
6030;BME280;3043;42.682;23.376;2023-04-27T04:45:28;94792.28;;;8.58;100.00
6030;BME280;3043;42.682;23.376;2023-04-27T04:47:54;94794.44;;;9.18;100.00
6030;BME280;3043;42.682;23.376;2023-04-27T04:50:20;94789.84;;;9.67;99.82
6030;BME280;3043;42.682;23.376;2023-04-27T04:52:45;94808.78;;;10.36;94.69
6030;BME280;3043;42.682;23.376;2023-04-27T04:55:11;94807.84;;;11.27;85.20
6030;BME280;3043;42.682;23.376;2023-04-27T04:57:36;94809.66;;;11.25;81.95
6030;BME280;3043;42.682;23.376;2023-04-27T05:00:02;94810.03;;;12.20;76.57
6030;BME280;3043;42.682;23.376;2023-04-27T05:02:36;94815.22;;;12.20;72.70
6030;BME280;3043;42.682;23.376;2023-04-27T05:05:01;94819.34;;;11.46;75.46
6030;BME280;3043;42.682;23.376;2023-04-27T05:07:27;94830.00;;;11.66;74.59
6030;BME280;3043;42.682;23.376;2023-04-27T05:09:52;94820.09;;;11.22;76.89
6030;BME280;3043;42.682;23.376;2023-04-27T05:12:18;94826.13;;;12.05;76.32
6030;BME280;3043;42.682;23.376;2023-04-27T05:14:43;94827.78;;;12.82;68.69
6030;BME280;3043;42.682;23.376;2023-04-27T05:17:08;94823.19;;;13.13;66.81
6030;BME280;3043;42.682;23.376;2023-04-27T05:19:34;94826.66;;;13.36;65.29
6030;BME280;3043;42.682;23.376;2023-04-27T05:22:00;94817.09;;;12.41;66.57
6030;BME280;3043;42.682;23.376;2023-04-27T05:24:25;94828.44;;;12.39;68.81
6030;BME280;3043;42.682;23.376;2023-04-27T05:26:51;94837.56;;;12.24;68.38
6030;BME280;3043;42.682;23.376;2023-04-27T05:29:16;94830.31;;;11.83;70.82
6030;BME280;3043;42.682;23.376;2023-04-27T05:31:41;94831.88;;;11.32;75.26
6030;BME280;3043;42.682;23.376;2023-04-27T05:34:07;94838.81;;;10.72;78.99
6030;BME280;3043;42.682;23.376;2023-04-27T05:36:34;94834.47;;;10.42;83.26
6030;BME280;3043;42.682;23.376;2023-04-27T05:39:00;94833.66;;;10.06;88.24
6030;BME280;3043;42.682;23.376;2023-04-27T05:41:26;94839.66;;;10.42;86.95
6030;BME280;3043;42.682;23.376;2023-04-27T05:43:52;94841.59;;;9.99;90.30
6030;BME280;3043;42.682;23.376;2023-04-27T05:46:18;94842.28;;;10.07;91.17
6030;BME280;3043;42.682;23.376;2023-04-27T05:48:43;94841.00;;;9.88;91.31
6030;BME280;3043;42.682;23.376;2023-04-27T05:51:09;94831.56;;;9.87;91.98
6030;BME280;3043;42.682;23.376;2023-04-27T05:53:34;94838.03;;;9.68;94.17
6030;BME280;3043;42.682;23.376;2023-04-27T05:56:00;94833.69;;;9.70;94.58
6030;BME280;3043;42.682;23.376;2023-04-27T05:58:26;94845.44;;;9.48;94.96
6030;BME280;3043;42.682;23.376;2023-04-27T06:00:52;94837.22;;;9.67;95.51
6030;BME280;3043;42.682;23.376;2023-04-27T06:03:18;94847.72;;;9.60;95.97
6030;BME280;3043;42.682;23.376;2023-04-27T06:05:44;94839.16;;;9.93;93.91
6030;BME280;3043;42.682;23.376;2023-04-27T06:08:10;94841.28;;;10.12;92.99
6030;BME280;3043;42.682;23.376;2023-04-27T06:10:39;94841.00;;;10.23;91.41
6030;BME280;3043;42.682;23.376;2023-04-27T06:13:04;94844.09;;;10.02;94.11
6030;BME280;3043;42.682;23.376;2023-04-27T06:15:30;94847.69;;;10.31;90.66
6030;BME280;3043;42.682;23.376;2023-04-27T06:17:55;94841.75;;;10.28;89.15
6030;BME280;3043;42.682;23.376;2023-04-27T06:20:21;94848.38;;;10.38;90.23
6030;BME280;3043;42.682;23.376;2023-04-27T06:22:46;94845.91;;;11.54;86.05
6030;BME280;3043;42.682;23.376;2023-04-27T06:25:12;94838.44;;;12.49;75.64
6030;BME280;3043;42.682;23.376;2023-04-27T06:27:37;94837.91;;;12.65;73.81
6030;BME280;3043;42.682;23.376;2023-04-27T06:30:03;94837.38;;;12.30;71.84
6030;BME280;3043;42.682;23.376;2023-04-27T06:32:29;94835.34;;;12.14;73.16
6030;BME280;3043;42.682;23.376;2023-04-27T06:34:54;94834.94;;;11.74;75.67
6030;BME280;3043;42.682;23.376;2023-04-27T06:37:20;94838.69;;;11.91;76.09
6030;BME280;3043;42.682;23.376;2023-04-27T06:39:48;94836.13;;;12.16;74.64
6030;BME280;3043;42.682;23.376;2023-04-27T06:42:14;94837.09;;;11.87;75.72
6030;BME280;3043;42.682;23.376;2023-04-27T06:44:39;94829.31;;;12.13;77.04
6030;BME280;3043;42.682;23.376;2023-04-27T06:47:05;94832.88;;;12.85;73.49
6030;BME280;3043;42.682;23.376;2023-04-27T06:49:30;94826.13;;;13.71;68.20
6030;BME280;3043;42.682;23.376;2023-04-27T06:51:56;94822.34;;;14.43;64.18
6030;BME280;3043;42.682;23.376;2023-04-27T06:54:22;94833.56;;;15.42;58.75
6030;BME280;3043;42.682;23.376;2023-04-27T06:56:47;94827.84;;;16.94;53.09
6030;BME280;3043;42.682;23.376;2023-04-27T06:59:12;94829.63;;;18.36;47.56
6030;BME280;3043;42.682;23.376;2023-04-27T07:01:39;94822.69;;;18.35;45.88
6030;BME280;3043;42.682;23.376;2023-04-27T07:04:05;94820.72;;;18.98;44.11
6030;BME280;3043;42.682;23.376;2023-04-27T07:06:31;94823.31;;;20.10;41.42
6030;BME280;3043;42.682;23.376;2023-04-27T07:08:57;94820.28;;;20.04;39.99
6030;BME280;3043;42.682;23.376;2023-04-27T07:11:22;94825.72;;;19.02;41.20
6030;BME280;3043;42.682;23.376;2023-04-27T07:13:48;94813.00;;;18.37;42.46
6030;BME280;3043;42.682;23.376;2023-04-27T07:16:14;94818.66;;;19.61;40.39
6030;BME280;3043;42.682;23.376;2023-04-27T07:18:40;94824.78;;;20.16;39.56
6030;BME280;3043;42.682;23.376;2023-04-27T07:21:06;94812.91;;;20.23;38.40
6030;BME280;3043;42.682;23.376;2023-04-27T07:23:31;94809.88;;;20.29;38.74
6030;BME280;3043;42.682;23.376;2023-04-27T07:25:56;94817.84;;;20.93;38.40
6030;BME280;3043;42.682;23.376;2023-04-27T07:28:23;94811.34;;;21.36;38.11
6030;BME280;3043;42.682;23.376;2023-04-27T07:30:48;94816.63;;;21.49;37.03
6030;BME280;3043;42.682;23.376;2023-04-27T07:33:13;94813.47;;;20.67;36.64
6030;BME280;3043;42.682;23.376;2023-04-27T07:35:39;94811.00;;;20.51;37.22
6030;BME280;3043;42.682;23.376;2023-04-27T07:38:05;94819.28;;;20.72;37.74
6030;BME280;3043;42.682;23.376;2023-04-27T07:40:31;94811.38;;;21.11;36.71
6030;BME280;3043;42.682;23.376;2023-04-27T07:42:58;94813.47;;;21.81;35.37
6030;BME280;3043;42.682;23.376;2023-04-27T07:45:24;94821.56;;;20.11;37.88
6030;BME280;3043;42.682;23.376;2023-04-27T07:47:59;94813.59;;;19.43;37.76
6030;BME280;3043;42.682;23.376;2023-04-27T07:50:28;94814.81;;;18.94;38.74
6030;BME280;3043;42.682;23.376;2023-04-27T07:52:54;94816.38;;;18.39;39.30
6030;BME280;3043;42.682;23.376;2023-04-27T07:55:20;94817.97;;;18.71;40.15
6030;BME280;3043;42.682;23.376;2023-04-27T07:57:56;94810.47;;;20.20;38.66
6030;BME280;3043;42.682;23.376;2023-04-27T08:00:22;94818.19;;;21.01;36.57
6030;BME280;3043;42.682;23.376;2023-04-27T08:02:48;94814.44;;;22.16;34.73
6030;BME280;3043;42.682;23.376;2023-04-27T08:05:14;94804.03;;;23.08;34.04
6030;BME280;3043;42.682;23.376;2023-04-27T08:07:40;94803.69;;;22.30;33.16
6030;BME280;3043;42.682;23.376;2023-04-27T08:10:06;94820.22;;;21.35;34.27
6030;BME280;3043;42.682;23.376;2023-04-27T08:12:32;94810.09;;;21.79;34.49
6030;BME280;3043;42.682;23.376;2023-04-27T08:14:58;94813.28;;;20.31;35.31
6030;BME280;3043;42.682;23.376;2023-04-27T08:17:24;94820.06;;;20.47;35.39
6030;BME280;3043;42.682;23.376;2023-04-27T08:19:49;94812.25;;;20.85;35.96
6030;BME280;3043;42.682;23.376;2023-04-27T08:22:15;94818.06;;;20.90;35.63
6030;BME280;3043;42.682;23.376;2023-04-27T08:24:41;94818.94;;;21.03;35.15
6030;BME280;3043;42.682;23.376;2023-04-27T08:27:06;94808.31;;;21.17;34.16
6030;BME280;3043;42.682;23.376;2023-04-27T08:29:32;94815.28;;;20.79;34.90
6030;BME280;3043;42.682;23.376;2023-04-27T08:32:00;94814.31;;;21.57;34.80
6030;BME280;3043;42.682;23.376;2023-04-27T08:34:27;94811.09;;;22.61;33.78
6030;BME280;3043;42.682;23.376;2023-04-27T08:36:52;94815.16;;;21.57;34.31
6030;BME280;3043;42.682;23.376;2023-04-27T08:39:18;94806.28;;;22.55;33.48
6030;BME280;3043;42.682;23.376;2023-04-27T08:41:44;94800.50;;;23.31;31.61
6030;BME280;3043;42.682;23.376;2023-04-27T08:44:10;94806.78;;;23.06;32.17
6030;BME280;3043;42.682;23.376;2023-04-27T08:46:36;94809.81;;;23.13;32.00
6030;BME280;3043;42.682;23.376;2023-04-27T08:49:02;94814.88;;;24.59;30.86
6030;BME280;3043;42.682;23.376;2023-04-27T08:51:28;94804.13;;;24.29;30.65
6030;BME280;3043;42.682;23.376;2023-04-27T08:53:55;94821.19;;;22.67;32.19
6030;BME280;3043;42.682;23.376;2023-04-27T08:56:23;94815.38;;;21.17;33.75
6030;BME280;3043;42.682;23.376;2023-04-27T08:58:50;94813.78;;;19.69;35.92
6030;BME280;3043;42.682;23.376;2023-04-27T09:01:15;94803.19;;;19.56;36.71
6030;BME280;3043;42.682;23.376;2023-04-27T09:03:41;94812.47;;;19.33;37.11
6030;BME280;3043;42.682;23.376;2023-04-27T09:06:07;94804.06;;;18.10;39.01
6030;BME280;3043;42.682;23.376;2023-04-27T09:11:12;94806.56;;;20.13;36.83
6030;BME280;3043;42.682;23.376;2023-04-27T09:13:39;94800.34;;;19.73;36.85
6030;BME280;3043;42.682;23.376;2023-04-27T09:16:05;94811.53;;;18.77;37.99
6030;BME280;3043;42.682;23.376;2023-04-27T09:18:31;94801.16;;;19.17;37.81
6030;BME280;3043;42.682;23.376;2023-04-27T09:20:59;94797.31;;;18.51;38.70
6030;BME280;3043;42.682;23.376;2023-04-27T09:23:32;94797.59;;;18.31;38.98
6030;BME280;3043;42.682;23.376;2023-04-27T09:25:59;94799.13;;;17.42;39.94
6030;BME280;3043;42.682;23.376;2023-04-27T09:28:26;94801.94;;;17.70;40.45
6030;BME280;3043;42.682;23.376;2023-04-27T09:30:57;94793.44;;;17.66;41.09
6030;BME280;3043;42.682;23.376;2023-04-27T09:33:30;94788.66;;;18.20;39.66
6030;BME280;3043;42.682;23.376;2023-04-27T09:35:58;94796.28;;;17.93;39.92
6030;BME280;3043;42.682;23.376;2023-04-27T09:38:24;94786.84;;;17.75;40.15
6030;BME280;3043;42.682;23.376;2023-04-27T09:40:51;94791.31;;;18.04;40.46
6030;BME280;3043;42.682;23.376;2023-04-27T09:43:17;94779.38;;;18.73;39.83
6030;BME280;3043;42.682;23.376;2023-04-27T09:45:43;94768.09;;;19.98;38.90
6030;BME280;3043;42.682;23.376;2023-04-27T09:48:09;94772.34;;;20.66;36.76
6030;BME280;3043;42.682;23.376;2023-04-27T09:50:37;94773.81;;;19.64;36.48
6030;BME280;3043;42.682;23.376;2023-04-27T09:53:06;94770.63;;;19.02;38.02
6030;BME280;3043;42.682;23.376;2023-04-27T09:55:41;94766.63;;;18.53;38.50
6030;BME280;3043;42.682;23.376;2023-04-27T10:00:55;94767.06;;;17.85;39.62
6030;BME280;3043;42.682;23.376;2023-04-27T10:03:32;94770.56;;;16.57;41.14
6030;BME280;3043;42.682;23.376;2023-04-27T10:08:44;94764.34;;;15.54;44.24
6030;BME280;3043;42.682;23.376;2023-04-27T10:11:14;94765.50;;;15.28;44.45
6030;BME280;3043;42.682;23.376;2023-04-27T10:13:50;94767.50;;;15.05;45.22
6030;BME280;3043;42.682;23.376;2023-04-27T10:16:17;94764.91;;;15.23;45.54
6030;BME280;3043;42.682;23.376;2023-04-27T10:18:55;94768.63;;;15.73;45.96
6030;BME280;3043;42.682;23.376;2023-04-27T10:21:21;94768.06;;;16.37;44.73
6030;BME280;3043;42.682;23.376;2023-04-27T10:23:49;94771.81;;;16.82;44.03
6030;BME280;3043;42.682;23.376;2023-04-27T10:26:26;94765.34;;;16.57;43.05
6030;BME280;3043;42.682;23.376;2023-04-27T10:29:10;94770.25;;;16.46;43.37
6030;BME280;3043;42.682;23.376;2023-04-27T10:31:43;94764.66;;;17.03;42.46
6030;BME280;3043;42.682;23.376;2023-04-27T10:34:10;94765.47;;;17.03;42.69
6030;BME280;3043;42.682;23.376;2023-04-27T10:36:40;94765.72;;;17.78;41.78
6030;BME280;3043;42.682;23.376;2023-04-27T10:39:39;94769.03;;;17.82;39.84
6030;BME280;3043;42.682;23.376;2023-04-27T10:42:05;94756.06;;;17.32;41.24
6030;BME280;3043;42.682;23.376;2023-04-27T10:44:32;94766.03;;;17.41;40.56
6030;BME280;3043;42.682;23.376;2023-04-27T10:47:00;94752.97;;;16.60;41.58
6030;BME280;3043;42.682;23.376;2023-04-27T10:49:27;94765.50;;;16.54;41.98
6030;BME280;3043;42.682;23.376;2023-04-27T10:51:56;94757.31;;;16.77;42.60
6030;BME280;3043;42.682;23.376;2023-04-27T10:54:26;94764.84;;;16.32;42.03
6030;BME280;3043;42.682;23.376;2023-04-27T10:56:52;94762.25;;;16.15;41.68
6030;BME280;3043;42.682;23.376;2023-04-27T10:59:18;94767.25;;;15.83;42.65
6030;BME280;3043;42.682;23.376;2023-04-27T11:01:47;94759.00;;;16.10;41.74
6030;BME280;3043;42.682;23.376;2023-04-27T11:04:13;94751.94;;;16.12;42.67
6030;BME280;3043;42.682;23.376;2023-04-27T11:06:44;94753.50;;;16.50;42.60
6030;BME280;3043;42.682;23.376;2023-04-27T11:09:11;94753.91;;;16.41;42.33
6030;BME280;3043;42.682;23.376;2023-04-27T11:11:37;94751.94;;;16.63;41.20
6030;BME280;3043;42.682;23.376;2023-04-27T11:14:02;94747.63;;;15.93;42.18
6030;BME280;3043;42.682;23.376;2023-04-27T11:16:29;94751.69;;;15.63;42.96
6030;BME280;3043;42.682;23.376;2023-04-27T11:18:54;94756.75;;;15.49;43.37
6030;BME280;3043;42.682;23.376;2023-04-27T11:21:21;94755.59;;;15.36;43.81
6030;BME280;3043;42.682;23.376;2023-04-27T11:23:47;94758.00;;;15.59;43.30
6030;BME280;3043;42.682;23.376;2023-04-27T11:26:13;94769.69;;;15.69;43.81
6030;BME280;3043;42.682;23.376;2023-04-27T11:28:40;94765.31;;;15.51;43.64
6030;BME280;3043;42.682;23.376;2023-04-27T11:31:06;94766.16;;;15.33;44.58
6030;BME280;3043;42.682;23.376;2023-04-27T11:33:31;94763.28;;;15.39;44.81
6030;BME280;3043;42.682;23.376;2023-04-27T11:35:57;94753.13;;;15.33;45.26
6030;BME280;3043;42.682;23.376;2023-04-27T11:38:23;94763.13;;;15.24;44.74
6030;BME280;3043;42.682;23.376;2023-04-27T11:41:01;94765.59;;;15.64;44.49
6030;BME280;3043;42.682;23.376;2023-04-27T11:43:27;94759.44;;;15.83;44.50
6030;BME280;3043;42.682;23.376;2023-04-27T11:45:54;94762.16;;;15.99;43.48
6030;BME280;3043;42.682;23.376;2023-04-27T11:48:22;94764.13;;;15.94;43.84
6030;BME280;3043;42.682;23.376;2023-04-27T11:50:48;94762.00;;;16.02;44.23
6030;BME280;3043;42.682;23.376;2023-04-27T11:53:14;94772.03;;;15.92;44.05
6030;BME280;3043;42.682;23.376;2023-04-27T11:55:41;94779.06;;;15.90;43.02
6030;BME280;3043;42.682;23.376;2023-04-27T11:58:14;94775.72;;;15.88;42.90
6030;BME280;3043;42.682;23.376;2023-04-27T12:00:40;94769.53;;;15.72;43.42
6030;BME280;3043;42.682;23.376;2023-04-27T12:03:05;94774.63;;;15.92;43.32
6030;BME280;3043;42.682;23.376;2023-04-27T12:05:31;94765.38;;;16.04;42.67
6030;BME280;3043;42.682;23.376;2023-04-27T12:07:57;94771.56;;;16.01;43.68
6030;BME280;3043;42.682;23.376;2023-04-27T12:10:23;94772.84;;;16.12;43.15
6030;BME280;3043;42.682;23.376;2023-04-27T12:12:49;94778.44;;;16.21;43.18
6030;BME280;3043;42.682;23.376;2023-04-27T12:15:14;94773.38;;;16.35;43.60
6030;BME280;3043;42.682;23.376;2023-04-27T12:17:40;94777.75;;;16.18;43.12
6030;BME280;3043;42.682;23.376;2023-04-27T12:20:06;94772.13;;;15.55;44.10
6030;BME280;3043;42.682;23.376;2023-04-27T12:22:32;94767.88;;;15.88;43.31
6030;BME280;3043;42.682;23.376;2023-04-27T12:24:57;94781.59;;;15.75;43.17
6030;BME280;3043;42.682;23.376;2023-04-27T12:27:23;94781.28;;;15.99;42.76
6030;BME280;3043;42.682;23.376;2023-04-27T12:29:48;94779.81;;;15.75;43.27
6030;BME280;3043;42.682;23.376;2023-04-27T12:32:14;94775.47;;;15.57;43.83
6030;BME280;3043;42.682;23.376;2023-04-27T12:34:40;94780.09;;;15.69;43.33
6030;BME280;3043;42.682;23.376;2023-04-27T12:37:07;94774.66;;;15.57;43.81
6030;BME280;3043;42.682;23.376;2023-04-27T12:39:32;94777.88;;;15.62;43.21
6030;BME280;3043;42.682;23.376;2023-04-27T12:41:58;94781.81;;;15.70;43.41
6030;BME280;3043;42.682;23.376;2023-04-27T12:44:23;94776.63;;;15.87;43.15
6030;BME280;3043;42.682;23.376;2023-04-27T12:46:49;94776.81;;;16.01;42.95
6030;BME280;3043;42.682;23.376;2023-04-27T12:49:15;94775.53;;;15.74;43.02
6030;BME280;3043;42.682;23.376;2023-04-27T12:51:41;94771.56;;;16.01;42.77
6030;BME280;3043;42.682;23.376;2023-04-27T12:54:08;94777.72;;;15.65;43.47
6030;BME280;3043;42.682;23.376;2023-04-27T12:56:35;94784.44;;;15.87;43.20
6030;BME280;3043;42.682;23.376;2023-04-27T12:59:00;94778.81;;;15.96;43.11
6030;BME280;3043;42.682;23.376;2023-04-27T13:01:26;94786.00;;;15.91;43.51
6030;BME280;3043;42.682;23.376;2023-04-27T13:03:53;94784.59;;;15.84;43.69
6030;BME280;3043;42.682;23.376;2023-04-27T13:06:19;94776.75;;;15.84;43.61
6030;BME280;3043;42.682;23.376;2023-04-27T13:08:47;94779.63;;;15.97;43.44
6030;BME280;3043;42.682;23.376;2023-04-27T13:11:12;94785.66;;;16.16;43.85
6030;BME280;3043;42.682;23.376;2023-04-27T13:13:38;94774.22;;;16.19;43.02
6030;BME280;3043;42.682;23.376;2023-04-27T13:16:03;94777.22;;;16.11;42.34